sensor_id;sensor_type;location;lat;lon;timestamp;temperature;humidity
27506;DHT22;14939;43.596;1.320;2023-03-01T00:01:30;0.70;90.70
27506;DHT22;14939;43.596;1.320;2023-03-01T00:03:57;0.70;90.60
27506;DHT22;14939;43.596;1.320;2023-03-01T00:06:24;0.70;90.70
27506;DHT22;14939;43.596;1.320;2023-03-01T00:08:50;0.80;90.90
27506;DHT22;14939;43.596;1.320;2023-03-01T00:11:23;0.80;90.90
27506;DHT22;14939;43.596;1.320;2023-03-01T00:13:52;0.80;91.10
27506;DHT22;14939;43.596;1.320;2023-03-01T00:16:27;0.90;90.70
27506;DHT22;14939;43.596;1.320;2023-03-01T00:18:54;0.90;91.00
27506;DHT22;14939;43.596;1.320;2023-03-01T00:21:21;0.90;90.60
27506;DHT22;14939;43.596;1.320;2023-03-01T00:23:47;1.00;90.20
27506;DHT22;14939;43.596;1.320;2023-03-01T00:26:15;1.00;90.00
27506;DHT22;14939;43.596;1.320;2023-03-01T00:28:42;1.10;89.40
27506;DHT22;14939;43.596;1.320;2023-03-01T00:31:13;1.10;89.00
27506;DHT22;14939;43.596;1.320;2023-03-01T00:33:39;1.20;88.50
27506;DHT22;14939;43.596;1.320;2023-03-01T00:36:06;1.20;88.50
27506;DHT22;14939;43.596;1.320;2023-03-01T00:38:37;1.20;88.00
27506;DHT22;14939;43.596;1.320;2023-03-01T00:41:07;1.20;86.70
27506;DHT22;14939;43.596;1.320;2023-03-01T00:43:34;1.30;86.70
27506;DHT22;14939;43.596;1.320;2023-03-01T00:46:07;1.30;86.40
27506;DHT22;14939;43.596;1.320;2023-03-01T00:48:33;1.20;86.90
27506;DHT22;14939;43.596;1.320;2023-03-01T00:51:10;1.20;86.90
27506;DHT22;14939;43.596;1.320;2023-03-01T00:53:37;1.20;86.80
27506;DHT22;14939;43.596;1.320;2023-03-01T00:56:04;1.10;86.60
27506;DHT22;14939;43.596;1.320;2023-03-01T00:58:30;1.00;87.20
27506;DHT22;14939;43.596;1.320;2023-03-01T01:00:55;1.00;87.50
27506;DHT22;14939;43.596;1.320;2023-03-01T01:03:22;1.00;87.50
27506;DHT22;14939;43.596;1.320;2023-03-01T01:05:53;0.90;87.90
27506;DHT22;14939;43.596;1.320;2023-03-01T01:08:20;0.90;88.20
27506;DHT22;14939;43.596;1.320;2023-03-01T01:10:46;0.90;88.00
27506;DHT22;14939;43.596;1.320;2023-03-01T01:13:12;0.80;88.70
27506;DHT22;14939;43.596;1.320;2023-03-01T01:15:38;0.80;89.50
27506;DHT22;14939;43.596;1.320;2023-03-01T01:18:05;0.70;89.90
27506;DHT22;14939;43.596;1.320;2023-03-01T01:20:31;0.70;90.00
27506;DHT22;14939;43.596;1.320;2023-03-01T01:22:56;0.60;90.30
27506;DHT22;14939;43.596;1.320;2023-03-01T01:25:22;0.60;90.40
27506;DHT22;14939;43.596;1.320;2023-03-01T01:27:50;0.50;90.40
27506;DHT22;14939;43.596;1.320;2023-03-01T01:30:17;0.50;90.70
27506;DHT22;14939;43.596;1.320;2023-03-01T01:32:42;0.40;90.90
27506;DHT22;14939;43.596;1.320;2023-03-01T01:35:08;0.30;90.90
27506;DHT22;14939;43.596;1.320;2023-03-01T01:37:34;0.30;90.90
27506;DHT22;14939;43.596;1.320;2023-03-01T01:40:00;0.30;91.00
27506;DHT22;14939;43.596;1.320;2023-03-01T01:42:29;0.20;91.30
27506;DHT22;14939;43.596;1.320;2023-03-01T01:47:52;0.10;91.90
27506;DHT22;14939;43.596;1.320;2023-03-01T01:50:19;0.00;92.20
27506;DHT22;14939;43.596;1.320;2023-03-01T01:52:45;0.00;92.50
27506;DHT22;14939;43.596;1.320;2023-03-01T01:55:17;0.00;92.60
27506;DHT22;14939;43.596;1.320;2023-03-01T01:57:49;-0.10;92.80
27506;DHT22;14939;43.596;1.320;2023-03-01T02:00:27;-0.10;92.80
27506;DHT22;14939;43.596;1.320;2023-03-01T02:03:14;-0.10;93.10
27506;DHT22;14939;43.596;1.320;2023-03-01T02:06:12;-0.20;93.40
27506;DHT22;14939;43.596;1.320;2023-03-01T02:08:40;-0.20;93.80
27506;DHT22;14939;43.596;1.320;2023-03-01T02:11:27;-0.20;93.80
27506;DHT22;14939;43.596;1.320;2023-03-01T02:13:55;-0.30;94.00
27506;DHT22;14939;43.596;1.320;2023-03-01T02:16:20;-0.30;93.90
27506;DHT22;14939;43.596;1.320;2023-03-01T02:18:47;-0.30;93.90
27506;DHT22;14939;43.596;1.320;2023-03-01T02:24:25;-0.30;94.00
27506;DHT22;14939;43.596;1.320;2023-03-01T02:26:54;-0.40;94.10
27506;DHT22;14939;43.596;1.320;2023-03-01T02:29:24;-0.40;94.30
27506;DHT22;14939;43.596;1.320;2023-03-01T02:31:52;-0.40;94.60
27506;DHT22;14939;43.596;1.320;2023-03-01T02:34:23;-0.50;94.80
27506;DHT22;14939;43.596;1.320;2023-03-01T02:37:13;-0.50;95.00
27506;DHT22;14939;43.596;1.320;2023-03-01T02:39:43;-0.50;95.20
27506;DHT22;14939;43.596;1.320;2023-03-01T02:42:14;-0.50;95.20
27506;DHT22;14939;43.596;1.320;2023-03-01T02:44:41;-0.60;95.30
27506;DHT22;14939;43.596;1.320;2023-03-01T02:47:06;-0.60;95.60
27506;DHT22;14939;43.596;1.320;2023-03-01T02:49:35;-0.60;95.60
27506;DHT22;14939;43.596;1.320;2023-03-01T02:57:34;-0.70;96.00
27506;DHT22;14939;43.596;1.320;2023-03-01T03:00:10;-0.70;96.20
27506;DHT22;14939;43.596;1.320;2023-03-01T03:02:47;-0.80;96.60
27506;DHT22;14939;43.596;1.320;2023-03-01T03:05:17;-0.90;97.00
27506;DHT22;14939;43.596;1.320;2023-03-01T03:07:45;-0.90;97.50
27506;DHT22;14939;43.596;1.320;2023-03-01T03:10:35;-0.90;97.70
27506;DHT22;14939;43.596;1.320;2023-03-01T03:13:04;-0.90;97.70
27506;DHT22;14939;43.596;1.320;2023-03-01T03:15:30;-0.90;97.70
27506;DHT22;14939;43.596;1.320;2023-03-01T03:17:58;-0.90;97.60
27506;DHT22;14939;43.596;1.320;2023-03-01T03:20:25;-0.90;97.70
27506;DHT22;14939;43.596;1.320;2023-03-01T03:22:53;-0.90;97.50
27506;DHT22;14939;43.596;1.320;2023-03-01T03:25:20;-0.90;97.50
27506;DHT22;14939;43.596;1.320;2023-03-01T03:27:48;-1.00;97.80
27506;DHT22;14939;43.596;1.320;2023-03-01T03:30:17;-1.00;98.10
27506;DHT22;14939;43.596;1.320;2023-03-01T03:32:45;-1.00;98.30
27506;DHT22;14939;43.596;1.320;2023-03-01T03:35:19;-1.10;98.60
27506;DHT22;14939;43.596;1.320;2023-03-01T03:37:45;-1.10;98.60
27506;DHT22;14939;43.596;1.320;2023-03-01T03:40:37;-1.10;98.80
27506;DHT22;14939;43.596;1.320;2023-03-01T03:43:05;-1.00;98.80
27506;DHT22;14939;43.596;1.320;2023-03-01T03:45:31;-1.00;98.80
27506;DHT22;14939;43.596;1.320;2023-03-01T03:47:59;-1.00;98.90
27506;DHT22;14939;43.596;1.320;2023-03-01T03:50:25;-1.10;99.00
27506;DHT22;14939;43.596;1.320;2023-03-01T03:52:51;-1.10;99.10
27506;DHT22;14939;43.596;1.320;2023-03-01T03:55:17;-1.10;99.20
27506;DHT22;14939;43.596;1.320;2023-03-01T03:57:46;-1.10;99.40
27506;DHT22;14939;43.596;1.320;2023-03-01T04:00:19;-1.10;99.50
27506;DHT22;14939;43.596;1.320;2023-03-01T04:02:46;-1.20;99.60
27506;DHT22;14939;43.596;1.320;2023-03-01T04:05:14;-1.20;99.90
27506;DHT22;14939;43.596;1.320;2023-03-01T04:07:41;-1.30;99.90
27506;DHT22;14939;43.596;1.320;2023-03-01T04:10:10;-1.30;99.90
27506;DHT22;14939;43.596;1.320;2023-03-01T04:12:36;-1.40;99.90
27506;DHT22;14939;43.596;1.320;2023-03-01T04:15:07;-1.40;99.90
27506;DHT22;14939;43.596;1.320;2023-03-01T04:17:48;-1.40;99.90
27506;DHT22;14939;43.596;1.320;2023-03-01T04:20:17;-1.40;99.90
27506;DHT22;14939;43.596;1.320;2023-03-01T04:22:44;-1.40;99.90
27506;DHT22;14939;43.596;1.320;2023-03-01T04:25:13;-1.40;99.90
27506;DHT22;14939;43.596;1.320;2023-03-01T04:27:40;-1.50;99.90
27506;DHT22;14939;43.596;1.320;2023-03-01T04:30:07;-1.50;99.90
27506;DHT22;14939;43.596;1.320;2023-03-01T04:32:33;-1.50;99.90
27506;DHT22;14939;43.596;1.320;2023-03-01T04:34:59;-1.50;99.90
27506;DHT22;14939;43.596;1.320;2023-03-01T04:37:25;-1.50;99.90
27506;DHT22;14939;43.596;1.320;2023-03-01T04:39:51;-1.50;99.90
27506;DHT22;14939;43.596;1.320;2023-03-01T04:42:17;-1.50;99.90
27506;DHT22;14939;43.596;1.320;2023-03-01T04:44:43;-1.60;99.90
27506;DHT22;14939;43.596;1.320;2023-03-01T04:47:09;-1.60;99.90
27506;DHT22;14939;43.596;1.320;2023-03-01T04:49:35;-1.60;99.90
27506;DHT22;14939;43.596;1.320;2023-03-01T04:52:01;-1.60;99.90
27506;DHT22;14939;43.596;1.320;2023-03-01T04:54:33;-1.60;99.90
27506;DHT22;14939;43.596;1.320;2023-03-01T04:57:00;-1.60;99.90
27506;DHT22;14939;43.596;1.320;2023-03-01T04:59:26;-1.70;99.90
27506;DHT22;14939;43.596;1.320;2023-03-01T05:01:54;-1.70;99.90
27506;DHT22;14939;43.596;1.320;2023-03-01T05:04:23;-1.80;99.90
27506;DHT22;14939;43.596;1.320;2023-03-01T05:06:50;-1.90;99.90
27506;DHT22;14939;43.596;1.320;2023-03-01T05:09:16;-1.90;99.90
27506;DHT22;14939;43.596;1.320;2023-03-01T05:11:41;-2.00;99.90
27506;DHT22;14939;43.596;1.320;2023-03-01T05:14:09;-2.00;99.90
27506;DHT22;14939;43.596;1.320;2023-03-01T05:16:35;-2.20;99.90
27506;DHT22;14939;43.596;1.320;2023-03-01T05:19:03;-2.20;99.90
27506;DHT22;14939;43.596;1.320;2023-03-01T05:21:37;-2.30;99.90
27506;DHT22;14939;43.596;1.320;2023-03-01T05:24:23;-2.30;99.90
27506;DHT22;14939;43.596;1.320;2023-03-01T05:26:49;-2.40;99.90
27506;DHT22;14939;43.596;1.320;2023-03-01T05:29:21;-2.40;99.90
27506;DHT22;14939;43.596;1.320;2023-03-01T05:31:57;-2.40;99.90
27506;DHT22;14939;43.596;1.320;2023-03-01T05:34:34;-2.50;99.90
27506;DHT22;14939;43.596;1.320;2023-03-01T05:37:01;-2.50;99.90
27506;DHT22;14939;43.596;1.320;2023-03-01T05:39:28;-2.40;99.90
27506;DHT22;14939;43.596;1.320;2023-03-01T05:41:56;-2.50;99.90
27506;DHT22;14939;43.596;1.320;2023-03-01T05:44:23;-2.50;99.90
27506;DHT22;14939;43.596;1.320;2023-03-01T05:46:49;-2.60;99.90
27506;DHT22;14939;43.596;1.320;2023-03-01T05:49:15;-2.60;99.90
27506;DHT22;14939;43.596;1.320;2023-03-01T05:51:42;-2.60;99.90
27506;DHT22;14939;43.596;1.320;2023-03-01T05:54:09;-2.70;99.90
27506;DHT22;14939;43.596;1.320;2023-03-01T05:56:36;-2.70;99.90
27506;DHT22;14939;43.596;1.320;2023-03-01T05:59:03;-2.80;99.90
27506;DHT22;14939;43.596;1.320;2023-03-01T06:01:31;-2.70;99.90
27506;DHT22;14939;43.596;1.320;2023-03-01T06:03:56;-2.80;99.90
27506;DHT22;14939;43.596;1.320;2023-03-01T06:06:23;-2.80;99.90
27506;DHT22;14939;43.596;1.320;2023-03-01T06:08:49;-2.80;99.90
27506;DHT22;14939;43.596;1.320;2023-03-01T06:11:15;-2.80;99.90
27506;DHT22;14939;43.596;1.320;2023-03-01T06:13:42;-2.70;99.90
27506;DHT22;14939;43.596;1.320;2023-03-01T06:16:08;-2.80;99.90
27506;DHT22;14939;43.596;1.320;2023-03-01T06:18:34;-2.80;99.90
27506;DHT22;14939;43.596;1.320;2023-03-01T06:20:59;-2.80;99.90
27506;DHT22;14939;43.596;1.320;2023-03-01T06:23:25;-2.80;99.90
27506;DHT22;14939;43.596;1.320;2023-03-01T06:25:52;-2.90;99.90
27506;DHT22;14939;43.596;1.320;2023-03-01T06:28:18;-2.90;99.90
27506;DHT22;14939;43.596;1.320;2023-03-01T06:30:43;-2.90;99.90
27506;DHT22;14939;43.596;1.320;2023-03-01T06:33:09;-2.90;99.90
27506;DHT22;14939;43.596;1.320;2023-03-01T06:35:35;-2.90;99.90
27506;DHT22;14939;43.596;1.320;2023-03-01T06:38:02;-2.90;99.90
27506;DHT22;14939;43.596;1.320;2023-03-01T06:40:28;-2.90;99.90
27506;DHT22;14939;43.596;1.320;2023-03-01T06:42:54;-2.90;99.90
27506;DHT22;14939;43.596;1.320;2023-03-01T06:45:20;-2.90;99.90
27506;DHT22;14939;43.596;1.320;2023-03-01T06:47:46;-2.80;99.90
27506;DHT22;14939;43.596;1.320;2023-03-01T06:50:14;-2.80;99.90
27506;DHT22;14939;43.596;1.320;2023-03-01T06:52:40;-2.80;99.90
27506;DHT22;14939;43.596;1.320;2023-03-01T06:55:06;-2.80;99.90
27506;DHT22;14939;43.596;1.320;2023-03-01T06:57:32;-2.80;99.90
27506;DHT22;14939;43.596;1.320;2023-03-01T06:59:58;-2.80;99.90
27506;DHT22;14939;43.596;1.320;2023-03-01T07:02:24;-2.80;99.90
27506;DHT22;14939;43.596;1.320;2023-03-01T07:04:50;-2.80;99.90
27506;DHT22;14939;43.596;1.320;2023-03-01T07:07:17;-2.80;99.90
27506;DHT22;14939;43.596;1.320;2023-03-01T07:09:46;-2.70;99.90
27506;DHT22;14939;43.596;1.320;2023-03-01T07:12:13;-2.60;99.90
27506;DHT22;14939;43.596;1.320;2023-03-01T07:14:39;-2.60;99.90
27506;DHT22;14939;43.596;1.320;2023-03-01T07:17:05;-2.50;99.90
27506;DHT22;14939;43.596;1.320;2023-03-01T07:19:30;-2.50;99.90
27506;DHT22;14939;43.596;1.320;2023-03-01T07:21:56;-2.40;99.90
27506;DHT22;14939;43.596;1.320;2023-03-01T07:24:22;-2.30;99.90
27506;DHT22;14939;43.596;1.320;2023-03-01T07:26:49;-2.20;99.90
27506;DHT22;14939;43.596;1.320;2023-03-01T07:29:15;-2.30;99.90
27506;DHT22;14939;43.596;1.320;2023-03-01T07:31:41;-2.30;99.90
27506;DHT22;14939;43.596;1.320;2023-03-01T07:34:07;-2.20;99.90
27506;DHT22;14939;43.596;1.320;2023-03-01T07:36:32;-2.10;99.90
27506;DHT22;14939;43.596;1.320;2023-03-01T07:38:58;-2.00;99.90
27506;DHT22;14939;43.596;1.320;2023-03-01T07:41:24;-2.00;99.90
27506;DHT22;14939;43.596;1.320;2023-03-01T07:43:50;-1.90;99.90
27506;DHT22;14939;43.596;1.320;2023-03-01T07:46:16;-1.80;99.90
27506;DHT22;14939;43.596;1.320;2023-03-01T07:48:43;-1.70;99.90
27506;DHT22;14939;43.596;1.320;2023-03-01T07:51:10;-1.60;99.90
27506;DHT22;14939;43.596;1.320;2023-03-01T07:53:35;-1.50;99.90
27506;DHT22;14939;43.596;1.320;2023-03-01T07:58:34;-1.40;99.90
27506;DHT22;14939;43.596;1.320;2023-03-01T08:01:05;-1.20;99.90
27506;DHT22;14939;43.596;1.320;2023-03-01T08:03:31;-1.10;99.90
27506;DHT22;14939;43.596;1.320;2023-03-01T08:06:00;-1.10;99.90
27506;DHT22;14939;43.596;1.320;2023-03-01T08:08:25;-1.00;99.90
27506;DHT22;14939;43.596;1.320;2023-03-01T08:10:52;-0.90;99.90
27506;DHT22;14939;43.596;1.320;2023-03-01T08:13:21;-0.90;99.90
27506;DHT22;14939;43.596;1.320;2023-03-01T08:15:50;-0.80;99.90
27506;DHT22;14939;43.596;1.320;2023-03-01T08:18:17;-0.60;99.90
27506;DHT22;14939;43.596;1.320;2023-03-01T08:20:43;-0.60;99.90
27506;DHT22;14939;43.596;1.320;2023-03-01T08:23:09;-0.50;99.90
27506;DHT22;14939;43.596;1.320;2023-03-01T08:25:35;-0.40;99.90
27506;DHT22;14939;43.596;1.320;2023-03-01T08:28:01;-0.30;99.90
27506;DHT22;14939;43.596;1.320;2023-03-01T08:30:26;-0.20;99.90
27506;DHT22;14939;43.596;1.320;2023-03-01T08:32:52;-0.10;99.90
27506;DHT22;14939;43.596;1.320;2023-03-01T08:35:19;0.00;99.90
27506;DHT22;14939;43.596;1.320;2023-03-01T08:37:45;0.10;99.90
27506;DHT22;14939;43.596;1.320;2023-03-01T08:40:11;0.10;99.90
27506;DHT22;14939;43.596;1.320;2023-03-01T08:42:42;0.20;99.90
27506;DHT22;14939;43.596;1.320;2023-03-01T08:45:11;0.30;99.90
27506;DHT22;14939;43.596;1.320;2023-03-01T08:47:37;0.40;99.90
27506;DHT22;14939;43.596;1.320;2023-03-01T08:50:03;0.50;99.90
27506;DHT22;14939;43.596;1.320;2023-03-01T08:52:29;0.60;99.90
27506;DHT22;14939;43.596;1.320;2023-03-01T08:54:56;0.70;99.90
27506;DHT22;14939;43.596;1.320;2023-03-01T08:57:22;0.80;99.90
27506;DHT22;14939;43.596;1.320;2023-03-01T08:59:47;1.00;99.90
27506;DHT22;14939;43.596;1.320;2023-03-01T09:02:17;1.10;98.90
27506;DHT22;14939;43.596;1.320;2023-03-01T09:04:43;1.20;98.90
27506;DHT22;14939;43.596;1.320;2023-03-01T09:07:10;1.30;97.60
27506;DHT22;14939;43.596;1.320;2023-03-01T09:09:36;1.40;97.20
27506;DHT22;14939;43.596;1.320;2023-03-01T09:12:03;1.50;97.00
27506;DHT22;14939;43.596;1.320;2023-03-01T09:14:29;1.70;94.80
27506;DHT22;14939;43.596;1.320;2023-03-01T09:16:54;2.00;94.10
27506;DHT22;14939;43.596;1.320;2023-03-01T09:19:20;2.10;91.90
27506;DHT22;14939;43.596;1.320;2023-03-01T09:21:46;2.20;92.80
27506;DHT22;14939;43.596;1.320;2023-03-01T09:24:19;2.30;91.50
27506;DHT22;14939;43.596;1.320;2023-03-01T09:26:45;2.40;87.80
27506;DHT22;14939;43.596;1.320;2023-03-01T09:29:12;2.50;85.40
27506;DHT22;14939;43.596;1.320;2023-03-01T09:31:37;2.60;82.40
27506;DHT22;14939;43.596;1.320;2023-03-01T09:34:03;2.80;77.70
27506;DHT22;14939;43.596;1.320;2023-03-01T09:36:29;2.80;74.60
27506;DHT22;14939;43.596;1.320;2023-03-01T09:38:56;3.00;71.60
27506;DHT22;14939;43.596;1.320;2023-03-01T09:44:16;2.90;68.60
27506;DHT22;14939;43.596;1.320;2023-03-01T09:46:45;3.00;67.80
27506;DHT22;14939;43.596;1.320;2023-03-01T09:49:36;3.00;68.80
27506;DHT22;14939;43.596;1.320;2023-03-01T09:54:30;3.10;66.80
27506;DHT22;14939;43.596;1.320;2023-03-01T10:02:38;3.10;64.20
27506;DHT22;14939;43.596;1.320;2023-03-01T10:05:44;3.20;64.40
27506;DHT22;14939;43.596;1.320;2023-03-01T10:10:44;3.40;63.50
27506;DHT22;14939;43.596;1.320;2023-03-01T10:16:01;3.50;65.70
27506;DHT22;14939;43.596;1.320;2023-03-01T10:18:31;3.60;62.30
27506;DHT22;14939;43.596;1.320;2023-03-01T10:20:59;3.70;61.90
27506;DHT22;14939;43.596;1.320;2023-03-01T10:23:27;3.70;62.60
27506;DHT22;14939;43.596;1.320;2023-03-01T10:26:16;3.80;61.90
27506;DHT22;14939;43.596;1.320;2023-03-01T10:31:27;3.80;60.30
27506;DHT22;14939;43.596;1.320;2023-03-01T10:34:08;3.90;58.80
27506;DHT22;14939;43.596;1.320;2023-03-01T10:36:33;4.00;57.00
27506;DHT22;14939;43.596;1.320;2023-03-01T10:39:11;3.90;58.20
27506;DHT22;14939;43.596;1.320;2023-03-01T10:42:09;3.90;59.10
27506;DHT22;14939;43.596;1.320;2023-03-01T10:47:02;3.90;58.90
27506;DHT22;14939;43.596;1.320;2023-03-01T10:49:28;4.10;58.70
27506;DHT22;14939;43.596;1.320;2023-03-01T10:51:54;4.10;57.90
27506;DHT22;14939;43.596;1.320;2023-03-01T10:54:30;4.20;58.20
27506;DHT22;14939;43.596;1.320;2023-03-01T10:57:04;4.30;58.60
27506;DHT22;14939;43.596;1.320;2023-03-01T10:59:33;4.30;59.90
27506;DHT22;14939;43.596;1.320;2023-03-01T11:02:28;4.50;59.10
27506;DHT22;14939;43.596;1.320;2023-03-01T11:07:54;4.30;57.60
27506;DHT22;14939;43.596;1.320;2023-03-01T11:12:52;4.50;57.30
27506;DHT22;14939;43.596;1.320;2023-03-01T11:15:28;4.50;55.90
27506;DHT22;14939;43.596;1.320;2023-03-01T11:17:56;4.50;55.90
27506;DHT22;14939;43.596;1.320;2023-03-01T11:20:34;4.60;55.70
27506;DHT22;14939;43.596;1.320;2023-03-01T11:23:14;4.40;55.50
27506;DHT22;14939;43.596;1.320;2023-03-01T11:25:47;4.60;56.00
27506;DHT22;14939;43.596;1.320;2023-03-01T11:28:17;4.70;55.30
27506;DHT22;14939;43.596;1.320;2023-03-01T11:33:59;4.90;55.30
27506;DHT22;14939;43.596;1.320;2023-03-01T11:39:22;4.80;54.80
27506;DHT22;14939;43.596;1.320;2023-03-01T11:42:02;4.90;55.80
27506;DHT22;14939;43.596;1.320;2023-03-01T11:44:33;4.80;55.20
27506;DHT22;14939;43.596;1.320;2023-03-01T11:47:30;4.80;54.60
27506;DHT22;14939;43.596;1.320;2023-03-01T11:50:10;4.80;55.40
27506;DHT22;14939;43.596;1.320;2023-03-01T11:53:30;5.00;55.20
27506;DHT22;14939;43.596;1.320;2023-03-01T12:04:30;5.20;54.50
27506;DHT22;14939;43.596;1.320;2023-03-01T12:12:43;5.20;54.90
27506;DHT22;14939;43.596;1.320;2023-03-01T12:15:37;5.30;54.10
27506;DHT22;14939;43.596;1.320;2023-03-01T12:29:24;5.70;54.80
27506;DHT22;14939;43.596;1.320;2023-03-01T12:34:35;5.80;53.10
27506;DHT22;14939;43.596;1.320;2023-03-01T12:45:40;5.60;53.40
27506;DHT22;14939;43.596;1.320;2023-03-01T12:48:40;5.80;54.10
27506;DHT22;14939;43.596;1.320;2023-03-01T12:51:10;6.00;54.20
27506;DHT22;14939;43.596;1.320;2023-03-01T12:53:49;6.00;52.50
27506;DHT22;14939;43.596;1.320;2023-03-01T12:56:24;5.90;52.40
27506;DHT22;14939;43.596;1.320;2023-03-01T12:59:18;6.10;53.40
27506;DHT22;14939;43.596;1.320;2023-03-01T13:17:50;6.20;48.90
27506;DHT22;14939;43.596;1.320;2023-03-01T13:20:18;6.30;50.80
27506;DHT22;14939;43.596;1.320;2023-03-01T13:22:46;6.40;49.60
27506;DHT22;14939;43.596;1.320;2023-03-01T13:25:18;6.60;50.70
27506;DHT22;14939;43.596;1.320;2023-03-01T13:27:46;6.50;48.90
27506;DHT22;14939;43.596;1.320;2023-03-01T13:35:51;6.10;50.10
27506;DHT22;14939;43.596;1.320;2023-03-01T13:46:58;6.60;47.90
27506;DHT22;14939;43.596;1.320;2023-03-01T13:49:29;6.40;49.00
27506;DHT22;14939;43.596;1.320;2023-03-01T13:51:57;6.60;49.40
27506;DHT22;14939;43.596;1.320;2023-03-01T13:54:32;6.70;49.30
27506;DHT22;14939;43.596;1.320;2023-03-01T13:56:59;6.70;49.80
27506;DHT22;14939;43.596;1.320;2023-03-01T13:59:26;6.60;48.80
27506;DHT22;14939;43.596;1.320;2023-03-01T14:01:58;6.50;49.30
27506;DHT22;14939;43.596;1.320;2023-03-01T14:04:30;6.50;49.50
27506;DHT22;14939;43.596;1.320;2023-03-01T14:07:20;6.50;50.10
27506;DHT22;14939;43.596;1.320;2023-03-01T14:09:53;6.60;49.60
27506;DHT22;14939;43.596;1.320;2023-03-01T14:20:07;7.00;49.70
27506;DHT22;14939;43.596;1.320;2023-03-01T14:22:34;7.00;49.90
27506;DHT22;14939;43.596;1.320;2023-03-01T14:27:44;6.60;48.20
27506;DHT22;14939;43.596;1.320;2023-03-01T14:30:19;6.70;48.50
27506;DHT22;14939;43.596;1.320;2023-03-01T14:33:20;6.90;49.40
27506;DHT22;14939;43.596;1.320;2023-03-01T14:36:09;6.90;48.50
27506;DHT22;14939;43.596;1.320;2023-03-01T14:38:39;6.60;48.30
27506;DHT22;14939;43.596;1.320;2023-03-01T14:41:19;6.70;48.50
27506;DHT22;14939;43.596;1.320;2023-03-01T14:43:49;6.60;48.50
27506;DHT22;14939;43.596;1.320;2023-03-01T14:46:30;6.60;48.60
27506;DHT22;14939;43.596;1.320;2023-03-01T14:49:12;6.70;49.50
27506;DHT22;14939;43.596;1.320;2023-03-01T14:51:41;6.80;48.80
27506;DHT22;14939;43.596;1.320;2023-03-01T14:54:46;6.80;49.30
27506;DHT22;14939;43.596;1.320;2023-03-01T14:57:22;6.80;48.80
27506;DHT22;14939;43.596;1.320;2023-03-01T14:59:50;6.80;48.50
27506;DHT22;14939;43.596;1.320;2023-03-01T15:02:21;6.80;48.90
27506;DHT22;14939;43.596;1.320;2023-03-01T15:04:50;6.80;49.30
27506;DHT22;14939;43.596;1.320;2023-03-01T15:07:17;6.80;49.40
27506;DHT22;14939;43.596;1.320;2023-03-01T15:09:43;6.90;49.70
27506;DHT22;14939;43.596;1.320;2023-03-01T15:12:45;7.00;50.00
27506;DHT22;14939;43.596;1.320;2023-03-01T15:18:00;7.00;49.40
27506;DHT22;14939;43.596;1.320;2023-03-01T15:20:28;7.00;48.60
27506;DHT22;14939;43.596;1.320;2023-03-01T15:22:56;6.90;48.50
27506;DHT22;14939;43.596;1.320;2023-03-01T15:25:27;6.90;49.00
27506;DHT22;14939;43.596;1.320;2023-03-01T15:27:55;6.90;48.30
27506;DHT22;14939;43.596;1.320;2023-03-01T15:30:29;6.90;48.30
27506;DHT22;14939;43.596;1.320;2023-03-01T15:35:55;7.00;48.20
27506;DHT22;14939;43.596;1.320;2023-03-01T15:40:54;7.00;48.80
27506;DHT22;14939;43.596;1.320;2023-03-01T15:43:44;6.90;48.00
27506;DHT22;14939;43.596;1.320;2023-03-01T15:46:23;6.90;48.50
27506;DHT22;14939;43.596;1.320;2023-03-01T15:48:53;7.00;48.10
27506;DHT22;14939;43.596;1.320;2023-03-01T15:51:28;7.10;48.40
27506;DHT22;14939;43.596;1.320;2023-03-01T15:53:55;7.00;48.20
27506;DHT22;14939;43.596;1.320;2023-03-01T15:56:21;7.00;48.10
27506;DHT22;14939;43.596;1.320;2023-03-01T15:58:47;7.00;48.80
27506;DHT22;14939;43.596;1.320;2023-03-01T16:01:14;7.00;49.20
27506;DHT22;14939;43.596;1.320;2023-03-01T16:03:42;7.10;48.80
27506;DHT22;14939;43.596;1.320;2023-03-01T16:06:11;7.10;48.40
27506;DHT22;14939;43.596;1.320;2023-03-01T16:08:38;7.10;48.80
27506;DHT22;14939;43.596;1.320;2023-03-01T16:11:17;7.10;47.90
27506;DHT22;14939;43.596;1.320;2023-03-01T16:13:44;7.40;47.60
27506;DHT22;14939;43.596;1.320;2023-03-01T16:16:11;7.70;47.80
27506;DHT22;14939;43.596;1.320;2023-03-01T16:18:41;7.80;47.50
27506;DHT22;14939;43.596;1.320;2023-03-01T16:21:12;7.30;47.70
27506;DHT22;14939;43.596;1.320;2023-03-01T16:23:38;7.20;48.40
27506;DHT22;14939;43.596;1.320;2023-03-01T16:26:04;7.30;48.20
27506;DHT22;14939;43.596;1.320;2023-03-01T16:28:29;7.60;48.00
27506;DHT22;14939;43.596;1.320;2023-03-01T16:30:55;7.80;47.10
27506;DHT22;14939;43.596;1.320;2023-03-01T16:33:21;7.80;47.90
27506;DHT22;14939;43.596;1.320;2023-03-01T16:35:46;7.90;46.50
27506;DHT22;14939;43.596;1.320;2023-03-01T16:38:12;8.00;46.20
27506;DHT22;14939;43.596;1.320;2023-03-01T16:40:38;8.10;46.00
27506;DHT22;14939;43.596;1.320;2023-03-01T16:43:03;8.30;45.20
27506;DHT22;14939;43.596;1.320;2023-03-01T16:45:34;8.30;45.30
27506;DHT22;14939;43.596;1.320;2023-03-01T16:48:05;8.50;44.80
27506;DHT22;14939;43.596;1.320;2023-03-01T16:50:30;8.60;44.70
27506;DHT22;14939;43.596;1.320;2023-03-01T16:52:56;8.60;45.30
27506;DHT22;14939;43.596;1.320;2023-03-01T16:55:22;8.70;44.90
27506;DHT22;14939;43.596;1.320;2023-03-01T16:57:48;8.40;45.30
27506;DHT22;14939;43.596;1.320;2023-03-01T17:00:15;8.60;44.50
27506;DHT22;14939;43.596;1.320;2023-03-01T17:02:41;8.30;44.50
27506;DHT22;14939;43.596;1.320;2023-03-01T17:05:07;8.10;45.70
27506;DHT22;14939;43.596;1.320;2023-03-01T17:07:34;7.90;46.10
27506;DHT22;14939;43.596;1.320;2023-03-01T17:10:03;8.00;46.00
27506;DHT22;14939;43.596;1.320;2023-03-01T17:12:29;8.10;45.00
27506;DHT22;14939;43.596;1.320;2023-03-01T17:14:54;8.20;45.00
27506;DHT22;14939;43.596;1.320;2023-03-01T17:17:20;7.90;45.30
27506;DHT22;14939;43.596;1.320;2023-03-01T17:19:46;7.70;45.90
27506;DHT22;14939;43.596;1.320;2023-03-01T17:22:12;7.60;46.40
27506;DHT22;14939;43.596;1.320;2023-03-01T17:24:42;7.40;46.70
27506;DHT22;14939;43.596;1.320;2023-03-01T17:27:08;7.20;47.20
27506;DHT22;14939;43.596;1.320;2023-03-01T17:29:34;7.00;47.60
27506;DHT22;14939;43.596;1.320;2023-03-01T17:32:01;6.50;49.00
27506;DHT22;14939;43.596;1.320;2023-03-01T17:34:26;6.20;49.50
27506;DHT22;14939;43.596;1.320;2023-03-01T17:36:52;6.00;50.40
27506;DHT22;14939;43.596;1.320;2023-03-01T17:39:19;5.80;50.80
27506;DHT22;14939;43.596;1.320;2023-03-01T17:41:53;5.70;51.40
27506;DHT22;14939;43.596;1.320;2023-03-01T17:44:19;5.60;52.10
27506;DHT22;14939;43.596;1.320;2023-03-01T17:46:45;5.50;52.20
27506;DHT22;14939;43.596;1.320;2023-03-01T17:49:10;5.40;52.10
27506;DHT22;14939;43.596;1.320;2023-03-01T17:51:36;5.30;52.20
27506;DHT22;14939;43.596;1.320;2023-03-01T17:54:02;5.20;52.90
27506;DHT22;14939;43.596;1.320;2023-03-01T17:56:28;5.20;53.50
27506;DHT22;14939;43.596;1.320;2023-03-01T17:58:54;5.00;54.10
27506;DHT22;14939;43.596;1.320;2023-03-01T18:01:21;5.00;54.00
27506;DHT22;14939;43.596;1.320;2023-03-01T18:03:50;4.90;54.50
27506;DHT22;14939;43.596;1.320;2023-03-01T18:06:18;4.90;54.50
27506;DHT22;14939;43.596;1.320;2023-03-01T18:08:45;4.80;55.50